sensor_id;sensor_type;location;lat;lon;timestamp;temperature;humidity
51839;DHT22;37886;53.174;6.368;2023-06-22T00:00:52;16.50;99.90
51839;DHT22;37886;53.174;6.368;2023-06-22T00:03:19;16.40;99.90
51839;DHT22;37886;53.174;6.368;2023-06-22T00:05:46;16.40;99.90
51839;DHT22;37886;53.174;6.368;2023-06-22T00:08:11;16.40;99.90
51839;DHT22;37886;53.174;6.368;2023-06-22T00:10:37;16.40;99.90
51839;DHT22;37886;53.174;6.368;2023-06-22T00:13:03;16.40;99.90
51839;DHT22;37886;53.174;6.368;2023-06-22T00:15:30;16.30;99.90
51839;DHT22;37886;53.174;6.368;2023-06-22T00:17:55;16.30;99.90
51839;DHT22;37886;53.174;6.368;2023-06-22T00:20:24;16.30;99.90
51839;DHT22;37886;53.174;6.368;2023-06-22T00:22:57;16.30;99.90
51839;DHT22;37886;53.174;6.368;2023-06-22T00:25:23;16.20;99.90
51839;DHT22;37886;53.174;6.368;2023-06-22T00:27:50;16.30;99.90
51839;DHT22;37886;53.174;6.368;2023-06-22T00:30:16;16.30;99.90
51839;DHT22;37886;53.174;6.368;2023-06-22T00:32:44;16.30;99.90
51839;DHT22;37886;53.174;6.368;2023-06-22T00:35:11;16.30;99.90
51839;DHT22;37886;53.174;6.368;2023-06-22T00:37:38;16.20;99.90
51839;DHT22;37886;53.174;6.368;2023-06-22T00:40:07;16.20;99.90
51839;DHT22;37886;53.174;6.368;2023-06-22T00:42:34;16.10;99.90
51839;DHT22;37886;53.174;6.368;2023-06-22T00:45:00;16.20;99.90
51839;DHT22;37886;53.174;6.368;2023-06-22T00:47:27;16.20;99.90
51839;DHT22;37886;53.174;6.368;2023-06-22T00:49:52;16.20;99.90
51839;DHT22;37886;53.174;6.368;2023-06-22T00:52:25;16.10;99.90
51839;DHT22;37886;53.174;6.368;2023-06-22T00:54:55;16.10;99.90
51839;DHT22;37886;53.174;6.368;2023-06-22T00:57:22;16.10;99.90
51839;DHT22;37886;53.174;6.368;2023-06-22T00:59:51;16.00;99.90
51839;DHT22;37886;53.174;6.368;2023-06-22T01:02:17;15.90;99.90
51839;DHT22;37886;53.174;6.368;2023-06-22T01:04:43;15.90;99.90
51839;DHT22;37886;53.174;6.368;2023-06-22T01:07:26;15.80;99.90
51839;DHT22;37886;53.174;6.368;2023-06-22T01:09:59;15.80;99.90
51839;DHT22;37886;53.174;6.368;2023-06-22T01:12:31;15.70;99.90
51839;DHT22;37886;53.174;6.368;2023-06-22T01:15:37;15.60;99.90
51839;DHT22;37886;53.174;6.368;2023-06-22T01:18:05;15.60;99.90
51839;DHT22;37886;53.174;6.368;2023-06-22T01:20:34;15.60;99.90
51839;DHT22;37886;53.174;6.368;2023-06-22T01:26:47;15.60;99.90
51839;DHT22;37886;53.174;6.368;2023-06-22T01:29:04;15.50;99.90
51839;DHT22;37886;53.174;6.368;2023-06-22T01:31:32;15.50;99.90
51839;DHT22;37886;53.174;6.368;2023-06-22T01:34:02;15.40;99.90
51839;DHT22;37886;53.174;6.368;2023-06-22T01:36:29;15.40;99.90
51839;DHT22;37886;53.174;6.368;2023-06-22T01:38:57;15.30;99.90
51839;DHT22;37886;53.174;6.368;2023-06-22T01:41:26;15.20;99.90
51839;DHT22;37886;53.174;6.368;2023-06-22T01:43:53;15.10;99.90
51839;DHT22;37886;53.174;6.368;2023-06-22T01:46:20;15.20;99.90
51839;DHT22;37886;53.174;6.368;2023-06-22T01:48:47;15.20;99.90
51839;DHT22;37886;53.174;6.368;2023-06-22T01:51:13;15.10;99.90
51839;DHT22;37886;53.174;6.368;2023-06-22T01:53:39;15.10;99.90
51839;DHT22;37886;53.174;6.368;2023-06-22T01:56:05;15.00;99.90
51839;DHT22;37886;53.174;6.368;2023-06-22T01:58:32;15.00;99.90
51839;DHT22;37886;53.174;6.368;2023-06-22T02:01:09;15.00;99.90
51839;DHT22;37886;53.174;6.368;2023-06-22T02:03:44;14.90;99.90
51839;DHT22;37886;53.174;6.368;2023-06-22T02:06:17;14.80;99.90
51839;DHT22;37886;53.174;6.368;2023-06-22T02:08:55;14.70;99.90
51839;DHT22;37886;53.174;6.368;2023-06-22T02:11:23;14.70;99.90
51839;DHT22;37886;53.174;6.368;2023-06-22T02:13:51;14.60;99.90
51839;DHT22;37886;53.174;6.368;2023-06-22T02:16:18;14.60;99.90
51839;DHT22;37886;53.174;6.368;2023-06-22T02:18:48;14.60;99.90
51839;DHT22;37886;53.174;6.368;2023-06-22T02:21:18;14.60;99.90
51839;DHT22;37886;53.174;6.368;2023-06-22T02:23:43;14.50;99.90
51839;DHT22;37886;53.174;6.368;2023-06-22T02:26:09;14.50;99.90
51839;DHT22;37886;53.174;6.368;2023-06-22T02:28:35;14.50;99.90
51839;DHT22;37886;53.174;6.368;2023-06-22T02:31:01;14.50;99.90
51839;DHT22;37886;53.174;6.368;2023-06-22T02:33:27;14.50;99.90
51839;DHT22;37886;53.174;6.368;2023-06-22T02:35:53;14.40;99.90
51839;DHT22;37886;53.174;6.368;2023-06-22T02:38:18;14.50;99.90
51839;DHT22;37886;53.174;6.368;2023-06-22T02:40:45;14.50;99.90
51839;DHT22;37886;53.174;6.368;2023-06-22T02:43:12;14.50;99.90
51839;DHT22;37886;53.174;6.368;2023-06-22T02:45:38;14.50;99.90
51839;DHT22;37886;53.174;6.368;2023-06-22T02:48:04;14.60;99.90
51839;DHT22;37886;53.174;6.368;2023-06-22T02:50:30;14.60;99.90
51839;DHT22;37886;53.174;6.368;2023-06-22T02:52:56;14.60;99.90
51839;DHT22;37886;53.174;6.368;2023-06-22T02:55:22;14.60;99.90
51839;DHT22;37886;53.174;6.368;2023-06-22T02:57:49;14.50;99.90
51839;DHT22;37886;53.174;6.368;2023-06-22T03:00:19;14.50;99.90
51839;DHT22;37886;53.174;6.368;2023-06-22T03:02:49;14.50;99.90
51839;DHT22;37886;53.174;6.368;2023-06-22T03:05:15;14.60;99.90
51839;DHT22;37886;53.174;6.368;2023-06-22T03:07:44;14.60;99.90
51839;DHT22;37886;53.174;6.368;2023-06-22T03:10:12;14.60;99.90
51839;DHT22;37886;53.174;6.368;2023-06-22T03:12:39;14.50;99.90
51839;DHT22;37886;53.174;6.368;2023-06-22T03:15:10;14.50;99.90
51839;DHT22;37886;53.174;6.368;2023-06-22T03:17:36;14.50;99.90
51839;DHT22;37886;53.174;6.368;2023-06-22T03:20:04;14.50;99.90
51839;DHT22;37886;53.174;6.368;2023-06-22T03:22:35;14.60;99.90
51839;DHT22;37886;53.174;6.368;2023-06-22T03:25:01;14.50;99.90
51839;DHT22;37886;53.174;6.368;2023-06-22T03:27:27;14.50;99.90
51839;DHT22;37886;53.174;6.368;2023-06-22T03:29:53;14.50;99.90
51839;DHT22;37886;53.174;6.368;2023-06-22T03:32:18;14.50;99.90
51839;DHT22;37886;53.174;6.368;2023-06-22T03:34:44;14.50;99.90
51839;DHT22;37886;53.174;6.368;2023-06-22T03:37:15;14.50;99.90
51839;DHT22;37886;53.174;6.368;2023-06-22T03:39:41;14.50;99.90
51839;DHT22;37886;53.174;6.368;2023-06-22T03:42:07;14.40;99.90
51839;DHT22;37886;53.174;6.368;2023-06-22T03:44:34;14.50;99.90
51839;DHT22;37886;53.174;6.368;2023-06-22T03:47:02;14.50;99.90
51839;DHT22;37886;53.174;6.368;2023-06-22T03:49:28;14.50;99.90
51839;DHT22;37886;53.174;6.368;2023-06-22T03:51:54;14.50;99.90
51839;DHT22;37886;53.174;6.368;2023-06-22T03:54:19;14.50;99.90
51839;DHT22;37886;53.174;6.368;2023-06-22T03:56:45;14.50;99.90
51839;DHT22;37886;53.174;6.368;2023-06-22T03:59:11;14.50;99.90
51839;DHT22;37886;53.174;6.368;2023-06-22T04:01:37;14.60;99.90
51839;DHT22;37886;53.174;6.368;2023-06-22T04:04:02;14.60;99.90
51839;DHT22;37886;53.174;6.368;2023-06-22T04:06:28;14.70;99.90
51839;DHT22;37886;53.174;6.368;2023-06-22T04:08:54;14.70;99.90
51839;DHT22;37886;53.174;6.368;2023-06-22T04:11:19;14.80;99.90
51839;DHT22;37886;53.174;6.368;2023-06-22T04:13:45;14.90;99.90
51839;DHT22;37886;53.174;6.368;2023-06-22T04:16:11;15.00;99.90
51839;DHT22;37886;53.174;6.368;2023-06-22T04:18:36;15.10;99.90
51839;DHT22;37886;53.174;6.368;2023-06-22T04:21:02;15.20;99.90
51839;DHT22;37886;53.174;6.368;2023-06-22T04:23:28;15.20;99.90
51839;DHT22;37886;53.174;6.368;2023-06-22T04:25:54;15.30;99.90
51839;DHT22;37886;53.174;6.368;2023-06-22T04:28:22;15.30;99.90
51839;DHT22;37886;53.174;6.368;2023-06-22T04:30:48;15.30;99.90
51839;DHT22;37886;53.174;6.368;2023-06-22T04:33:15;15.30;99.90
51839;DHT22;37886;53.174;6.368;2023-06-22T04:35:41;15.30;99.90
51839;DHT22;37886;53.174;6.368;2023-06-22T04:38:07;15.40;99.90
51839;DHT22;37886;53.174;6.368;2023-06-22T04:40:33;15.50;99.90
51839;DHT22;37886;53.174;6.368;2023-06-22T04:42:59;15.80;99.90
51839;DHT22;37886;53.174;6.368;2023-06-22T04:45:28;15.90;99.90
51839;DHT22;37886;53.174;6.368;2023-06-22T04:47:57;15.90;99.90
51839;DHT22;37886;53.174;6.368;2023-06-22T04:50:23;16.00;99.90
51839;DHT22;37886;53.174;6.368;2023-06-22T04:52:49;16.10;99.90
51839;DHT22;37886;53.174;6.368;2023-06-22T04:55:16;16.10;99.90
51839;DHT22;37886;53.174;6.368;2023-06-22T04:57:48;16.20;99.90
51839;DHT22;37886;53.174;6.368;2023-06-22T05:00:17;16.30;99.90
51839;DHT22;37886;53.174;6.368;2023-06-22T05:02:45;16.40;99.90
51839;DHT22;37886;53.174;6.368;2023-06-22T05:05:12;16.50;99.90
51839;DHT22;37886;53.174;6.368;2023-06-22T05:07:46;16.60;99.90
51839;DHT22;37886;53.174;6.368;2023-06-22T05:10:14;16.60;99.90
51839;DHT22;37886;53.174;6.368;2023-06-22T05:12:40;16.70;99.90
51839;DHT22;37886;53.174;6.368;2023-06-22T05:15:08;16.70;99.90
51839;DHT22;37886;53.174;6.368;2023-06-22T05:17:34;16.80;99.90
51839;DHT22;37886;53.174;6.368;2023-06-22T05:20:01;16.90;99.90
51839;DHT22;37886;53.174;6.368;2023-06-22T05:22:27;16.90;99.90
51839;DHT22;37886;53.174;6.368;2023-06-22T05:24:52;17.00;99.90
51839;DHT22;37886;53.174;6.368;2023-06-22T05:27:18;17.10;99.90
51839;DHT22;37886;53.174;6.368;2023-06-22T05:29:44;17.20;99.90
51839;DHT22;37886;53.174;6.368;2023-06-22T05:32:10;17.40;99.90
51839;DHT22;37886;53.174;6.368;2023-06-22T05:34:36;17.50;99.90
51839;DHT22;37886;53.174;6.368;2023-06-22T05:37:02;17.60;99.90
51839;DHT22;37886;53.174;6.368;2023-06-22T05:39:28;17.70;99.90
51839;DHT22;37886;53.174;6.368;2023-06-22T05:41:54;17.80;99.90
51839;DHT22;37886;53.174;6.368;2023-06-22T05:44:19;17.90;99.90
51839;DHT22;37886;53.174;6.368;2023-06-22T05:46:45;17.90;99.90
51839;DHT22;37886;53.174;6.368;2023-06-22T05:49:14;18.10;99.90
51839;DHT22;37886;53.174;6.368;2023-06-22T05:51:41;18.20;99.90
51839;DHT22;37886;53.174;6.368;2023-06-22T05:54:07;18.20;99.90
51839;DHT22;37886;53.174;6.368;2023-06-22T05:56:34;18.30;99.90
51839;DHT22;37886;53.174;6.368;2023-06-22T05:59:00;18.30;99.90
51839;DHT22;37886;53.174;6.368;2023-06-22T06:01:26;18.30;99.90
51839;DHT22;37886;53.174;6.368;2023-06-22T06:03:52;18.40;99.90
51839;DHT22;37886;53.174;6.368;2023-06-22T06:06:18;18.40;99.90
51839;DHT22;37886;53.174;6.368;2023-06-22T06:08:46;18.60;99.90
51839;DHT22;37886;53.174;6.368;2023-06-22T06:11:12;18.70;99.90
51839;DHT22;37886;53.174;6.368;2023-06-22T06:13:38;18.90;99.90
51839;DHT22;37886;53.174;6.368;2023-06-22T06:16:03;19.10;99.90
51839;DHT22;37886;53.174;6.368;2023-06-22T06:18:29;19.20;99.90
51839;DHT22;37886;53.174;6.368;2023-06-22T06:20:55;19.40;99.90
51839;DHT22;37886;53.174;6.368;2023-06-22T06:23:20;19.50;99.90
51839;DHT22;37886;53.174;6.368;2023-06-22T06:25:46;19.70;99.90
51839;DHT22;37886;53.174;6.368;2023-06-22T06:28:12;19.90;99.90
51839;DHT22;37886;53.174;6.368;2023-06-22T06:30:37;20.00;99.90
51839;DHT22;37886;53.174;6.368;2023-06-22T06:33:03;20.10;99.90
51839;DHT22;37886;53.174;6.368;2023-06-22T06:35:34;20.10;99.90
51839;DHT22;37886;53.174;6.368;2023-06-22T06:38:00;20.30;99.90
51839;DHT22;37886;53.174;6.368;2023-06-22T06:40:26;20.40;99.90
51839;DHT22;37886;53.174;6.368;2023-06-22T06:42:51;20.50;99.90
51839;DHT22;37886;53.174;6.368;2023-06-22T06:45:21;20.70;99.90
51839;DHT22;37886;53.174;6.368;2023-06-22T06:47:51;20.90;99.90
51839;DHT22;37886;53.174;6.368;2023-06-22T06:50:18;21.10;99.90
51839;DHT22;37886;53.174;6.368;2023-06-22T06:52:43;21.30;99.90
51839;DHT22;37886;53.174;6.368;2023-06-22T06:55:10;21.40;99.90
51839;DHT22;37886;53.174;6.368;2023-06-22T06:57:41;21.60;99.90
51839;DHT22;37886;53.174;6.368;2023-06-22T07:00:11;21.70;99.90
51839;DHT22;37886;53.174;6.368;2023-06-22T07:02:39;21.70;99.90
51839;DHT22;37886;53.174;6.368;2023-06-22T07:05:06;21.70;99.90
51839;DHT22;37886;53.174;6.368;2023-06-22T07:07:32;21.60;99.90
51839;DHT22;37886;53.174;6.368;2023-06-22T07:09:59;21.60;99.90
51839;DHT22;37886;53.174;6.368;2023-06-22T07:12:24;21.70;99.90
51839;DHT22;37886;53.174;6.368;2023-06-22T07:14:51;21.80;99.90
51839;DHT22;37886;53.174;6.368;2023-06-22T07:17:17;21.80;99.90
51839;DHT22;37886;53.174;6.368;2023-06-22T07:19:43;21.80;99.90
51839;DHT22;37886;53.174;6.368;2023-06-22T07:22:08;21.90;99.90
51839;DHT22;37886;53.174;6.368;2023-06-22T07:24:34;21.80;99.90
51839;DHT22;37886;53.174;6.368;2023-06-22T07:27:00;21.80;99.90
51839;DHT22;37886;53.174;6.368;2023-06-22T07:29:27;22.00;99.90
51839;DHT22;37886;53.174;6.368;2023-06-22T07:31:53;22.00;99.90
51839;DHT22;37886;53.174;6.368;2023-06-22T07:34:21;22.00;99.90
51839;DHT22;37886;53.174;6.368;2023-06-22T07:36:47;22.00;99.90
51839;DHT22;37886;53.174;6.368;2023-06-22T07:39:13;22.10;99.90
51839;DHT22;37886;53.174;6.368;2023-06-22T07:41:41;22.20;99.90
51839;DHT22;37886;53.174;6.368;2023-06-22T07:44:07;22.30;99.90
51839;DHT22;37886;53.174;6.368;2023-06-22T07:46:33;22.20;99.90
51839;DHT22;37886;53.174;6.368;2023-06-22T07:48:59;22.20;99.90
51839;DHT22;37886;53.174;6.368;2023-06-22T07:51:25;22.10;99.90
51839;DHT22;37886;53.174;6.368;2023-06-22T07:53:51;22.30;99.90
51839;DHT22;37886;53.174;6.368;2023-06-22T07:56:17;22.40;99.90
51839;DHT22;37886;53.174;6.368;2023-06-22T07:58:47;22.50;99.90
51839;DHT22;37886;53.174;6.368;2023-06-22T08:01:16;22.80;99.90
51839;DHT22;37886;53.174;6.368;2023-06-22T08:03:42;23.10;99.90
51839;DHT22;37886;53.174;6.368;2023-06-22T08:06:09;23.10;99.90
51839;DHT22;37886;53.174;6.368;2023-06-22T08:08:38;23.00;99.90
51839;DHT22;37886;53.174;6.368;2023-06-22T08:11:03;22.90;99.90
51839;DHT22;37886;53.174;6.368;2023-06-22T08:13:30;23.10;99.90
51839;DHT22;37886;53.174;6.368;2023-06-22T08:15:55;23.40;99.90
51839;DHT22;37886;53.174;6.368;2023-06-22T08:18:21;23.50;99.90
51839;DHT22;37886;53.174;6.368;2023-06-22T08:20:47;23.70;99.90
51839;DHT22;37886;53.174;6.368;2023-06-22T08:23:12;24.00;99.90
51839;DHT22;37886;53.174;6.368;2023-06-22T08:25:38;24.30;99.90
51839;DHT22;37886;53.174;6.368;2023-06-22T08:28:04;24.50;99.90
51839;DHT22;37886;53.174;6.368;2023-06-22T08:30:30;24.60;99.90
51839;DHT22;37886;53.174;6.368;2023-06-22T08:32:56;24.60;99.90
51839;DHT22;37886;53.174;6.368;2023-06-22T08:35:23;24.70;99.90
51839;DHT22;37886;53.174;6.368;2023-06-22T08:37:48;24.80;99.90
51839;DHT22;37886;53.174;6.368;2023-06-22T08:40:22;25.00;99.90
51839;DHT22;37886;53.174;6.368;2023-06-22T08:42:49;25.20;99.90
51839;DHT22;37886;53.174;6.368;2023-06-22T08:45:14;25.50;99.90
51839;DHT22;37886;53.174;6.368;2023-06-22T08:47:41;25.20;99.90
51839;DHT22;37886;53.174;6.368;2023-06-22T08:50:11;25.20;99.90
51839;DHT22;37886;53.174;6.368;2023-06-22T08:52:38;25.40;99.90
51839;DHT22;37886;53.174;6.368;2023-06-22T08:55:06;25.70;99.90
51839;DHT22;37886;53.174;6.368;2023-06-22T08:57:31;25.50;99.90
51839;DHT22;37886;53.174;6.368;2023-06-22T08:59:58;25.60;99.90
51839;DHT22;37886;53.174;6.368;2023-06-22T09:02:27;25.60;99.90
51839;DHT22;37886;53.174;6.368;2023-06-22T09:04:59;25.20;99.90
51839;DHT22;37886;53.174;6.368;2023-06-22T09:07:25;25.20;99.90
51839;DHT22;37886;53.174;6.368;2023-06-22T09:09:51;25.20;99.90
51839;DHT22;37886;53.174;6.368;2023-06-22T09:12:18;25.10;99.90
51839;DHT22;37886;53.174;6.368;2023-06-22T09:14:45;24.70;99.90
51839;DHT22;37886;53.174;6.368;2023-06-22T09:17:12;24.70;99.90
51839;DHT22;37886;53.174;6.368;2023-06-22T09:19:38;24.60;99.90
51839;DHT22;37886;53.174;6.368;2023-06-22T09:22:04;24.50;99.90
51839;DHT22;37886;53.174;6.368;2023-06-22T09:24:32;24.70;99.90
51839;DHT22;37886;53.174;6.368;2023-06-22T09:26:58;24.60;99.90
51839;DHT22;37886;53.174;6.368;2023-06-22T09:29:24;24.50;99.90
51839;DHT22;37886;53.174;6.368;2023-06-22T09:31:49;24.80;99.90
51839;DHT22;37886;53.174;6.368;2023-06-22T09:34:16;24.80;99.90
51839;DHT22;37886;53.174;6.368;2023-06-22T09:36:46;25.00;99.90
51839;DHT22;37886;53.174;6.368;2023-06-22T09:39:11;25.00;99.90
51839;DHT22;37886;53.174;6.368;2023-06-22T09:41:37;25.00;99.90
51839;DHT22;37886;53.174;6.368;2023-06-22T09:44:03;24.90;99.90
51839;DHT22;37886;53.174;6.368;2023-06-22T09:46:29;25.00;99.90
51839;DHT22;37886;53.174;6.368;2023-06-22T09:48:54;25.00;99.90
51839;DHT22;37886;53.174;6.368;2023-06-22T09:51:20;24.80;99.90
51839;DHT22;37886;53.174;6.368;2023-06-22T09:53:47;25.10;99.90
51839;DHT22;37886;53.174;6.368;2023-06-22T09:56:13;25.30;99.90
51839;DHT22;37886;53.174;6.368;2023-06-22T09:58:44;25.60;99.90
51839;DHT22;37886;53.174;6.368;2023-06-22T10:01:10;25.60;99.90
51839;DHT22;37886;53.174;6.368;2023-06-22T10:03:36;25.20;99.90
51839;DHT22;37886;53.174;6.368;2023-06-22T10:06:03;25.50;99.90
51839;DHT22;37886;53.174;6.368;2023-06-22T10:08:29;26.00;99.90
51839;DHT22;37886;53.174;6.368;2023-06-22T10:10:54;26.30;99.90
51839;DHT22;37886;53.174;6.368;2023-06-22T10:13:20;26.60;99.90
51839;DHT22;37886;53.174;6.368;2023-06-22T10:15:46;26.90;99.90
51839;DHT22;37886;53.174;6.368;2023-06-22T10:18:20;26.90;99.90
51839;DHT22;37886;53.174;6.368;2023-06-22T10:20:50;26.90;99.90
51839;DHT22;37886;53.174;6.368;2023-06-22T10:23:19;27.10;99.90
51839;DHT22;37886;53.174;6.368;2023-06-22T10:25:45;26.90;99.90
51839;DHT22;37886;53.174;6.368;2023-06-22T10:28:12;27.30;99.90
51839;DHT22;37886;53.174;6.368;2023-06-22T10:30:39;27.00;99.90
51839;DHT22;37886;53.174;6.368;2023-06-22T10:33:07;26.80;99.90
51839;DHT22;37886;53.174;6.368;2023-06-22T10:35:33;26.70;99.90
51839;DHT22;37886;53.174;6.368;2023-06-22T10:37:59;27.00;99.90
51839;DHT22;37886;53.174;6.368;2023-06-22T10:40:25;27.60;99.90
51839;DHT22;37886;53.174;6.368;2023-06-22T10:42:51;27.90;99.90
51839;DHT22;37886;53.174;6.368;2023-06-22T10:45:17;27.60;99.90
51839;DHT22;37886;53.174;6.368;2023-06-22T10:47:42;26.90;99.90
51839;DHT22;37886;53.174;6.368;2023-06-22T10:50:08;27.20;99.90
51839;DHT22;37886;53.174;6.368;2023-06-22T10:52:34;27.70;99.90
51839;DHT22;37886;53.174;6.368;2023-06-22T10:55:00;28.00;99.90
51839;DHT22;37886;53.174;6.368;2023-06-22T10:57:26;28.00;99.90
51839;DHT22;37886;53.174;6.368;2023-06-22T10:59:51;28.20;99.90
51839;DHT22;37886;53.174;6.368;2023-06-22T11:02:17;27.40;99.90
51839;DHT22;37886;53.174;6.368;2023-06-22T11:04:43;26.70;99.90
51839;DHT22;37886;53.174;6.368;2023-06-22T11:07:09;27.20;99.90
51839;DHT22;37886;53.174;6.368;2023-06-22T11:09:35;27.70;99.90
51839;DHT22;37886;53.174;6.368;2023-06-22T11:12:01;28.20;99.90
51839;DHT22;37886;53.174;6.368;2023-06-22T11:14:26;28.10;99.90
51839;DHT22;37886;53.174;6.368;2023-06-22T11:16:52;27.60;99.90
51839;DHT22;37886;53.174;6.368;2023-06-22T11:19:18;27.50;99.90
51839;DHT22;37886;53.174;6.368;2023-06-22T11:21:44;28.00;99.90
51839;DHT22;37886;53.174;6.368;2023-06-22T11:24:10;28.30;99.90
51839;DHT22;37886;53.174;6.368;2023-06-22T11:26:35;27.90;99.90
51839;DHT22;37886;53.174;6.368;2023-06-22T11:29:02;28.30;99.90
51839;DHT22;37886;53.174;6.368;2023-06-22T11:31:31;28.50;99.90
51839;DHT22;37886;53.174;6.368;2023-06-22T11:33:57;28.10;99.90
51839;DHT22;37886;53.174;6.368;2023-06-22T11:36:23;27.60;99.90
51839;DHT22;37886;53.174;6.368;2023-06-22T11:38:49;27.60;99.90
51839;DHT22;37886;53.174;6.368;2023-06-22T11:41:15;27.70;99.90
51839;DHT22;37886;53.174;6.368;2023-06-22T11:43:40;28.00;99.90
51839;DHT22;37886;53.174;6.368;2023-06-22T11:46:06;28.00;99.90
51839;DHT22;37886;53.174;6.368;2023-06-22T11:48:32;28.10;99.90
51839;DHT22;37886;53.174;6.368;2023-06-22T11:50:58;28.00;99.90
51839;DHT22;37886;53.174;6.368;2023-06-22T11:53:25;27.90;99.90
51839;DHT22;37886;53.174;6.368;2023-06-22T11:55:52;27.90;99.90
51839;DHT22;37886;53.174;6.368;2023-06-22T11:58:21;28.00;99.90
51839;DHT22;37886;53.174;6.368;2023-06-22T12:00:48;28.10;99.90
51839;DHT22;37886;53.174;6.368;2023-06-22T12:03:14;27.80;99.90
51839;DHT22;37886;53.174;6.368;2023-06-22T12:05:40;27.50;99.90
51839;DHT22;37886;53.174;6.368;2023-06-22T12:08:06;27.70;99.90
51839;DHT22;37886;53.174;6.368;2023-06-22T12:10:32;27.80;99.90
51839;DHT22;37886;53.174;6.368;2023-06-22T12:12:58;27.80;99.90
51839;DHT22;37886;53.174;6.368;2023-06-22T12:15:25;27.80;99.90
51839;DHT22;37886;53.174;6.368;2023-06-22T12:17:51;27.80;99.90
51839;DHT22;37886;53.174;6.368;2023-06-22T12:20:17;27.70;99.90
51839;DHT22;37886;53.174;6.368;2023-06-22T12:22:43;27.60;99.90
51839;DHT22;37886;53.174;6.368;2023-06-22T12:25:09;27.30;99.90
51839;DHT22;37886;53.174;6.368;2023-06-22T12:27:35;27.00;99.90
51839;DHT22;37886;53.174;6.368;2023-06-22T12:30:02;27.00;99.90
51839;DHT22;37886;53.174;6.368;2023-06-22T12:32:28;26.90;99.90
51839;DHT22;37886;53.174;6.368;2023-06-22T12:34:53;26.70;99.90
51839;DHT22;37886;53.174;6.368;2023-06-22T12:37:19;26.50;99.90
51839;DHT22;37886;53.174;6.368;2023-06-22T12:39:45;26.60;99.90
51839;DHT22;37886;53.174;6.368;2023-06-22T12:42:11;26.60;99.90
51839;DHT22;37886;53.174;6.368;2023-06-22T12:44:40;26.50;99.90
51839;DHT22;37886;53.174;6.368;2023-06-22T12:47:10;26.20;99.90
51839;DHT22;37886;53.174;6.368;2023-06-22T12:49:36;26.20;99.90
51839;DHT22;37886;53.174;6.368;2023-06-22T12:52:03;26.30;99.90
51839;DHT22;37886;53.174;6.368;2023-06-22T12:54:29;26.40;99.90
51839;DHT22;37886;53.174;6.368;2023-06-22T12:56:55;26.60;99.90
51839;DHT22;37886;53.174;6.368;2023-06-22T12:59:21;26.30;99.90
51839;DHT22;37886;53.174;6.368;2023-06-22T13:01:47;26.20;99.90
51839;DHT22;37886;53.174;6.368;2023-06-22T13:04:13;26.10;99.90
51839;DHT22;37886;53.174;6.368;2023-06-22T13:06:44;25.90;99.90
51839;DHT22;37886;53.174;6.368;2023-06-22T13:09:14;25.90;99.90
51839;DHT22;37886;53.174;6.368;2023-06-22T13:11:40;25.80;99.90
51839;DHT22;37886;53.174;6.368;2023-06-22T13:14:06;25.90;99.90
51839;DHT22;37886;53.174;6.368;2023-06-22T13:16:31;25.80;99.90
51839;DHT22;37886;53.174;6.368;2023-06-22T13:18:57;25.70;99.90
51839;DHT22;37886;53.174;6.368;2023-06-22T13:21:23;25.70;99.90
51839;DHT22;37886;53.174;6.368;2023-06-22T13:23:48;26.00;99.90
51839;DHT22;37886;53.174;6.368;2023-06-22T13:26:14;25.90;99.90
51839;DHT22;37886;53.174;6.368;2023-06-22T13:28:40;25.80;99.90
51839;DHT22;37886;53.174;6.368;2023-06-22T13:31:05;26.00;99.90
51839;DHT22;37886;53.174;6.368;2023-06-22T13:33:31;25.70;99.90
51839;DHT22;37886;53.174;6.368;2023-06-22T13:35:57;25.90;99.90
51839;DHT22;37886;53.174;6.368;2023-06-22T13:38:23;26.00;99.90
51839;DHT22;37886;53.174;6.368;2023-06-22T13:40:49;25.80;99.90
51839;DHT22;37886;53.174;6.368;2023-06-22T13:43:15;25.60;99.90
51839;DHT22;37886;53.174;6.368;2023-06-22T13:45:41;25.40;99.90
51839;DHT22;37886;53.174;6.368;2023-06-22T13:48:07;25.40;99.90
51839;DHT22;37886;53.174;6.368;2023-06-22T13:50:33;25.30;99.90
51839;DHT22;37886;53.174;6.368;2023-06-22T13:52:59;25.00;99.90
51839;DHT22;37886;53.174;6.368;2023-06-22T13:55:24;25.00;99.90
51839;DHT22;37886;53.174;6.368;2023-06-22T13:57:52;25.00;99.90
51839;DHT22;37886;53.174;6.368;2023-06-22T14:00:18;24.90;99.90
51839;DHT22;37886;53.174;6.368;2023-06-22T14:02:44;24.80;99.90
51839;DHT22;37886;53.174;6.368;2023-06-22T14:05:10;24.80;99.90
51839;DHT22;37886;53.174;6.368;2023-06-22T14:07:36;24.80;99.90
51839;DHT22;37886;53.174;6.368;2023-06-22T14:10:03;24.60;99.90
51839;DHT22;37886;53.174;6.368;2023-06-22T14:12:29;24.40;99.90
51839;DHT22;37886;53.174;6.368;2023-06-22T14:14:55;24.30;99.90
51839;DHT22;37886;53.174;6.368;2023-06-22T14:17:20;24.20;99.90
51839;DHT22;37886;53.174;6.368;2023-06-22T14:19:51;24.10;99.90
51839;DHT22;37886;53.174;6.368;2023-06-22T14:22:21;24.00;99.90
51839;DHT22;37886;53.174;6.368;2023-06-22T14:24:50;24.00;99.90
51839;DHT22;37886;53.174;6.368;2023-06-22T14:27:16;23.90;99.90
51839;DHT22;37886;53.174;6.368;2023-06-22T14:29:42;23.80;99.90
51839;DHT22;37886;53.174;6.368;2023-06-22T14:32:08;23.90;99.90
51839;DHT22;37886;53.174;6.368;2023-06-22T14:34:34;23.80;99.90
51839;DHT22;37886;53.174;6.368;2023-06-22T14:37:02;23.70;99.90
51839;DHT22;37886;53.174;6.368;2023-06-22T14:39:28;23.60;99.90
51839;DHT22;37886;53.174;6.368;2023-06-22T14:41:53;23.70;99.90
51839;DHT22;37886;53.174;6.368;2023-06-22T14:44:19;23.70;99.90
51839;DHT22;37886;53.174;6.368;2023-06-22T14:46:45;23.70;99.90
51839;DHT22;37886;53.174;6.368;2023-06-22T14:49:11;23.70;99.90
51839;DHT22;37886;53.174;6.368;2023-06-22T14:51:36;23.60;99.90
51839;DHT22;37886;53.174;6.368;2023-06-22T14:54:02;23.70;99.90
51839;DHT22;37886;53.174;6.368;2023-06-22T14:56:28;23.60;99.90
51839;DHT22;37886;53.174;6.368;2023-06-22T14:58:54;23.60;99.90
51839;DHT22;37886;53.174;6.368;2023-06-22T15:01:20;23.80;99.90
51839;DHT22;37886;53.174;6.368;2023-06-22T15:03:46;23.80;99.90
51839;DHT22;37886;53.174;6.368;2023-06-22T15:06:11;23.70;99.90
51839;DHT22;37886;53.174;6.368;2023-06-22T15:08:40;23.70;99.90
51839;DHT22;37886;53.174;6.368;2023-06-22T15:11:06;23.70;99.90
51839;DHT22;37886;53.174;6.368;2023-06-22T15:13:33;23.50;99.90
51839;DHT22;37886;53.174;6.368;2023-06-22T15:16:00;23.50;99.90
51839;DHT22;37886;53.174;6.368;2023-06-22T15:18:26;23.50;99.90
51839;DHT22;37886;53.174;6.368;2023-06-22T15:20:53;23.30;99.90
51839;DHT22;37886;53.174;6.368;2023-06-22T15:23:18;23.20;99.90
51839;DHT22;37886;53.174;6.368;2023-06-22T15:25:44;23.10;99.90
51839;DHT22;37886;53.174;6.368;2023-06-22T15:28:11;23.00;99.90
51839;DHT22;37886;53.174;6.368;2023-06-22T15:30:37;22.80;99.90